createdAt,value
2018-07-09T00:00:53.145Z,17.81
2018-07-09T00:03:20.904Z,17.93
2018-07-09T00:05:49.688Z,18.00
2018-07-09T00:08:17.973Z,17.89
2018-07-09T00:10:53.602Z,17.63
2018-07-09T00:13:22.017Z,17.65
2018-07-09T00:15:49.741Z,17.71
2018-07-09T00:18:17.462Z,17.65
2018-07-09T00:20:45.399Z,17.75
2018-07-09T00:23:13.579Z,17.92
2018-07-09T00:25:41.351Z,17.66
2018-07-09T00:28:09.118Z,17.60
2018-07-09T00:30:36.889Z,17.82
2018-07-09T00:33:04.882Z,17.53
2018-07-09T00:35:32.576Z,17.52
2018-07-09T00:38:00.258Z,17.74
2018-07-09T00:40:27.968Z,17.65
2018-07-09T00:42:55.693Z,17.81
2018-07-09T00:45:23.504Z,17.88
2018-07-09T00:47:51.319Z,17.49
2018-07-09T00:50:19.097Z,17.38
2018-07-09T00:52:46.917Z,17.41
2018-07-09T00:55:14.585Z,17.42
2018-07-09T00:57:42.344Z,17.43
2018-07-09T01:00:10.061Z,17.46
2018-07-09T01:02:37.720Z,17.50
2018-07-09T01:05:05.601Z,17.38
2018-07-09T01:07:33.287Z,17.34
2018-07-09T01:10:00.989Z,17.33
2018-07-09T01:12:28.674Z,17.44
2018-07-09T01:14:56.345Z,17.46
2018-07-09T01:17:24.035Z,17.52
2018-07-09T01:19:51.845Z,17.42
2018-07-09T01:22:19.582Z,17.24
2018-07-09T01:24:47.338Z,17.19
2018-07-09T01:27:15.037Z,17.46
2018-07-09T01:29:42.877Z,17.52
2018-07-09T01:32:10.561Z,17.38
2018-07-09T01:34:38.260Z,17.30
2018-07-09T01:37:06.077Z,17.31
2018-07-09T01:39:33.793Z,17.21
2018-07-09T01:42:01.580Z,17.15
2018-07-09T01:44:29.272Z,17.19
2018-07-09T01:46:57.087Z,17.25
2018-07-09T01:49:24.946Z,17.18
2018-07-09T01:51:52.740Z,17.20
2018-07-09T01:54:20.469Z,17.24
2018-07-09T01:56:48.148Z,17.11
2018-07-09T01:59:15.860Z,17.10
2018-07-09T02:01:43.579Z,17.20
2018-07-09T02:04:11.282Z,17.33
2018-07-09T02:06:38.989Z,17.37
2018-07-09T02:09:07.529Z,17.27
2018-07-09T02:11:35.376Z,17.35
2018-07-09T02:14:03.069Z,17.33
2018-07-09T02:16:30.753Z,17.26
2018-07-09T02:18:58.654Z,17.42
2018-07-09T02:21:26.334Z,17.51
2018-07-09T02:23:54.358Z,17.48
2018-07-09T02:26:22.073Z,17.32
2018-07-09T02:28:49.791Z,17.44
2018-07-09T02:31:17.497Z,17.47
2018-07-09T02:33:45.165Z,17.47
2018-07-09T02:36:12.863Z,17.58
2018-07-09T02:38:40.560Z,17.65
2018-07-09T02:41:08.257Z,17.66
2018-07-09T02:43:35.963Z,17.67
2018-07-09T02:46:03.662Z,17.69
2018-07-09T02:48:31.392Z,17.71
2018-07-09T02:50:59.234Z,17.70
2018-07-09T02:53:26.988Z,17.73
2018-07-09T02:55:54.692Z,17.78
2018-07-09T02:58:22.391Z,17.75
2018-07-09T03:00:50.216Z,17.74
2018-07-09T03:03:17.873Z,17.77
2018-07-09T03:05:45.597Z,17.82
2018-07-09T03:08:13.325Z,17.84
2018-07-09T03:10:41.194Z,17.83
2018-07-09T03:13:08.899Z,17.84
2018-07-09T03:15:36.733Z,17.88
2018-07-09T03:18:04.482Z,17.93
2018-07-09T03:20:32.257Z,17.91
2018-07-09T03:22:59.948Z,17.89
2018-07-09T03:25:27.639Z,17.93
2018-07-09T03:27:55.355Z,17.95
2018-07-09T03:30:23.034Z,17.92
2018-07-09T03:32:50.734Z,17.94
2018-07-09T03:35:18.438Z,17.94
2018-07-09T03:37:46.109Z,17.95
2018-07-09T03:40:13.794Z,17.97
2018-07-09T03:42:41.510Z,17.98
2018-07-09T03:45:09.207Z,18.03
2018-07-09T03:47:36.917Z,18.00
2018-07-09T03:50:04.732Z,18.04
2018-07-09T03:52:32.417Z,18.05
2018-07-09T03:55:00.149Z,18.03
2018-07-09T03:57:27.866Z,18.06
2018-07-09T03:59:55.623Z,18.06
2018-07-09T04:02:23.479Z,18.04
2018-07-09T04:04:51.210Z,18.05
2018-07-09T04:07:18.970Z,18.06
2018-07-09T04:09:46.834Z,18.10
2018-07-09T04:12:14.539Z,18.11
2018-07-09T04:14:42.248Z,18.09
2018-07-09T04:17:09.997Z,18.07
2018-07-09T04:19:37.658Z,18.12
2018-07-09T04:22:05.335Z,17.84
2018-07-09T04:24:33.053Z,18.14
2018-07-09T04:27:00.739Z,18.17
2018-07-09T04:29:28.422Z,18.21
2018-07-09T04:31:56.401Z,18.22
2018-07-09T04:34:24.118Z,18.22
2018-07-09T04:36:51.833Z,18.22
2018-07-09T04:39:19.553Z,18.22
2018-07-09T04:41:47.266Z,18.25
2018-07-09T04:44:14.994Z,18.27
2018-07-09T04:46:42.756Z,18.29
2018-07-09T04:49:10.481Z,18.28
2018-07-09T04:51:38.214Z,18.31
2018-07-09T04:54:05.960Z,18.32
2018-07-09T04:56:33.645Z,18.32
2018-07-09T04:59:01.298Z,18.35
2018-07-09T05:01:29.013Z,18.36
2018-07-09T05:03:56.690Z,18.38
2018-07-09T05:06:24.361Z,18.41
2018-07-09T05:08:52.176Z,18.44
2018-07-09T05:11:19.850Z,18.46
2018-07-09T05:13:47.552Z,18.49
2018-07-09T05:16:15.258Z,18.52
2018-07-09T05:18:42.943Z,18.53
2018-07-09T05:21:10.613Z,18.54
2018-07-09T05:23:38.293Z,18.56
2018-07-09T05:26:05.965Z,18.57
2018-07-09T05:28:33.664Z,18.61
2018-07-09T05:31:01.370Z,18.62
2018-07-09T05:33:29.069Z,18.65
2018-07-09T05:35:56.734Z,18.67
2018-07-09T05:38:25.621Z,18.71
2018-07-09T05:40:53.832Z,18.73
2018-07-09T05:43:22.541Z,18.77
2018-07-09T05:45:50.499Z,18.80
2018-07-09T05:48:18.308Z,18.80
2018-07-09T05:50:46.007Z,18.86
2018-07-09T05:53:13.987Z,18.90
2018-07-09T05:55:41.682Z,18.91
2018-07-09T05:58:09.441Z,18.93
2018-07-09T06:00:37.161Z,18.94
2018-07-09T06:03:04.905Z,18.98
2018-07-09T06:05:32.642Z,19.00
2018-07-09T06:08:00.410Z,19.01
2018-07-09T06:10:28.072Z,19.02
2018-07-09T06:12:55.875Z,19.04
2018-07-09T06:15:23.637Z,19.05
2018-07-09T06:17:51.377Z,19.07
2018-07-09T06:20:19.129Z,19.12
2018-07-09T06:22:47.028Z,19.14
2018-07-09T06:25:14.741Z,19.16
2018-07-09T06:27:42.510Z,19.21
2018-07-09T06:30:10.295Z,19.23
2018-07-09T06:32:37.982Z,19.25
2018-07-09T06:35:05.802Z,19.30
2018-07-09T06:37:33.595Z,19.31
2018-07-09T06:40:01.303Z,19.35
2018-07-09T06:42:29.030Z,19.38
2018-07-09T06:44:56.801Z,19.44
2018-07-09T06:47:24.530Z,19.44
2018-07-09T06:49:52.336Z,19.43
2018-07-09T06:52:20.039Z,19.42
2018-07-09T06:54:47.778Z,19.41
2018-07-09T06:57:15.496Z,19.41
2018-07-09T06:59:43.237Z,19.49
2018-07-09T07:02:10.939Z,19.47
2018-07-09T07:04:38.669Z,19.49
2018-07-09T07:07:06.432Z,19.51
2018-07-09T07:09:34.181Z,19.53
2018-07-09T07:12:01.890Z,19.52
2018-07-09T07:14:29.665Z,19.55
2018-07-09T07:16:57.349Z,19.55
2018-07-09T07:19:25.938Z,19.60
2018-07-09T07:21:53.761Z,19.58
2018-07-09T07:24:21.820Z,19.62
2018-07-09T07:26:49.516Z,19.61
2018-07-09T07:29:17.342Z,19.65
2018-07-09T07:31:45.064Z,19.68
2018-07-09T07:34:12.786Z,19.72
2018-07-09T07:36:40.567Z,19.71
2018-07-09T07:39:08.249Z,19.70
2018-07-09T07:41:35.954Z,19.75
2018-07-09T07:44:03.714Z,19.76
2018-07-09T07:46:31.382Z,19.78
2018-07-09T07:48:59.140Z,19.80
2018-07-09T07:51:26.967Z,19.82
2018-07-09T07:53:54.780Z,19.84
2018-07-09T07:56:22.518Z,19.86
2018-07-09T07:58:50.254Z,19.92
2018-07-09T08:01:17.990Z,19.93
2018-07-09T08:03:45.654Z,19.92
2018-07-09T08:06:13.396Z,19.95
2018-07-09T08:08:41.127Z,19.95
2018-07-09T08:11:11.223Z,19.93
2018-07-09T08:13:36.800Z,19.96
2018-07-09T08:16:04.860Z,19.98
2018-07-09T08:18:32.562Z,20.03
2018-07-09T08:21:00.321Z,20.07
2018-07-09T08:23:28.019Z,20.08
2018-07-09T08:25:55.682Z,20.07
2018-07-09T08:28:23.571Z,20.10
2018-07-09T08:30:51.245Z,20.11
2018-07-09T08:33:18.965Z,20.15
2018-07-09T08:35:46.961Z,20.16
2018-07-09T08:38:14.740Z,20.21
2018-07-09T08:40:42.452Z,20.22
2018-07-09T08:43:10.138Z,20.29
2018-07-09T08:45:37.918Z,20.33
2018-07-09T08:48:05.678Z,20.40
2018-07-09T08:50:33.405Z,20.46
2018-07-09T08:53:01.254Z,20.52
2018-07-09T08:55:29.018Z,20.57
2018-07-09T08:57:56.709Z,20.62
2018-07-09T09:00:24.474Z,20.70
2018-07-09T09:02:52.345Z,20.75
2018-07-09T09:05:20.221Z,20.78
2018-07-09T09:07:47.885Z,20.84
2018-07-09T09:10:15.652Z,20.88
2018-07-09T09:12:43.338Z,20.97
2018-07-09T09:15:11.044Z,21.05
2018-07-09T09:17:38.788Z,21.10
2018-07-09T09:20:06.621Z,21.17
2018-07-09T09:22:34.321Z,21.20
2018-07-09T09:25:01.996Z,21.46
2018-07-09T09:27:29.859Z,21.45
2018-07-09T09:29:57.541Z,21.37
2018-07-09T09:32:25.314Z,21.32
2018-07-09T09:34:53.052Z,21.44
2018-07-09T09:37:20.847Z,21.53
2018-07-09T09:39:48.538Z,21.77
2018-07-09T09:42:16.262Z,21.72
2018-07-09T09:44:43.949Z,21.61
2018-07-09T09:47:11.690Z,21.58
2018-07-09T09:49:39.374Z,21.65
2018-07-09T09:52:07.081Z,21.94
2018-07-09T09:54:34.895Z,21.87
2018-07-09T09:57:02.825Z,21.95
2018-07-09T09:59:30.595Z,21.89
2018-07-09T10:01:58.322Z,21.76
2018-07-09T10:04:26.026Z,21.87
2018-07-09T10:06:53.769Z,21.89
2018-07-09T10:09:21.464Z,21.80
2018-07-09T10:11:49.137Z,21.98
2018-07-09T10:14:16.823Z,22.03
2018-07-09T10:16:44.599Z,21.97
2018-07-09T10:19:12.269Z,21.94
2018-07-09T10:21:39.971Z,21.89
2018-07-09T10:24:07.686Z,21.93
2018-07-09T10:26:35.393Z,21.91
2018-07-09T10:29:03.114Z,21.97
2018-07-09T10:31:30.811Z,21.89
2018-07-09T10:33:58.510Z,22.14
2018-07-09T10:36:26.203Z,22.07
2018-07-09T10:38:53.912Z,22.07
2018-07-09T10:41:21.601Z,22.06
2018-07-09T10:43:49.393Z,22.06
2018-07-09T10:46:17.182Z,22.17
2018-07-09T10:48:45.003Z,22.08
2018-07-09T10:51:12.729Z,22.14
2018-07-09T10:53:40.446Z,22.08
2018-07-09T10:56:08.181Z,22.10
2018-07-09T10:58:35.963Z,22.12
2018-07-09T11:01:03.728Z,22.20
2018-07-09T11:03:31.754Z,22.15
2018-07-09T11:05:59.557Z,22.23
2018-07-09T11:08:27.273Z,22.22
2018-07-09T11:10:54.978Z,22.21
2018-07-09T11:13:22.667Z,22.22
2018-07-09T11:15:50.417Z,22.31
2018-07-09T11:18:18.109Z,22.27
2018-07-09T11:20:46.603Z,22.34
2018-07-09T11:23:16.102Z,22.23
2018-07-09T11:25:43.882Z,22.17
2018-07-09T11:28:11.613Z,22.13
2018-07-09T11:30:39.358Z,22.15
2018-07-09T11:33:07.317Z,22.22
2018-07-09T11:35:34.962Z,22.23
2018-07-09T11:38:02.750Z,22.24
2018-07-09T11:40:30.426Z,22.23
2018-07-09T11:42:58.166Z,22.30
2018-07-09T11:45:25.874Z,22.33
2018-07-09T11:47:53.584Z,22.33
2018-07-09T11:50:21.282Z,22.32
2018-07-09T11:52:48.933Z,22.29
2018-07-09T11:55:16.677Z,22.29
2018-07-09T11:57:44.381Z,22.34
2018-07-09T12:00:12.123Z,21.95
2018-07-09T12:02:40.906Z,22.33
2018-07-09T12:05:08.813Z,22.36
2018-07-09T12:07:36.510Z,22.40
2018-07-09T12:10:04.656Z,22.36
2018-07-09T12:12:32.431Z,22.39
2018-07-09T12:15:00.187Z,22.39
2018-07-09T12:17:27.897Z,22.37
2018-07-09T12:19:55.596Z,22.37
2018-07-09T12:22:23.272Z,22.34
2018-07-09T12:24:50.913Z,22.30
2018-07-09T12:27:18.598Z,22.29
2018-07-09T12:29:46.294Z,22.35
2018-07-09T12:32:13.977Z,21.93
2018-07-09T12:34:41.665Z,22.41
2018-07-09T12:37:09.319Z,22.43
2018-07-09T12:39:37.029Z,22.46
2018-07-09T12:42:04.724Z,22.50
2018-07-09T12:44:32.404Z,22.50
2018-07-09T12:47:00.116Z,22.52
2018-07-09T12:49:27.898Z,22.55
2018-07-09T12:51:55.843Z,22.53
2018-07-09T12:54:23.526Z,22.52
2018-07-09T12:56:51.218Z,22.52
2018-07-09T12:59:18.949Z,22.47
2018-07-09T13:01:46.717Z,22.44
2018-07-09T13:04:14.382Z,22.44
2018-07-09T13:06:42.929Z,22.44
2018-07-09T13:09:10.612Z,22.36
2018-07-09T13:11:38.294Z,22.41
2018-07-09T13:14:06.052Z,22.36
2018-07-09T13:16:33.762Z,22.39
2018-07-09T13:19:01.408Z,22.37
2018-07-09T13:21:29.125Z,22.35
2018-07-09T13:23:56.905Z,22.36
2018-07-09T13:26:24.613Z,22.35
2018-07-09T13:28:52.493Z,22.33
2018-07-09T13:31:20.270Z,22.28
2018-07-09T13:33:48.044Z,22.27
2018-07-09T13:36:15.838Z,22.29
2018-07-09T13:38:43.569Z,22.30
2018-07-09T13:41:11.353Z,22.25
2018-07-09T13:43:39.070Z,22.26
2018-07-09T13:46:06.782Z,22.27
2018-07-09T13:48:34.565Z,22.19
2018-07-09T13:51:02.362Z,22.25
2018-07-09T13:53:30.138Z,22.28
2018-07-09T13:55:58.155Z,22.29
2018-07-09T13:58:25.891Z,22.27
2018-07-09T14:00:53.654Z,22.27
2018-07-09T14:03:21.394Z,22.29
2018-07-09T14:05:49.049Z,22.29
2018-07-09T14:08:16.732Z,22.29
2018-07-09T14:10:44.404Z,22.33
2018-07-09T14:13:12.107Z,22.29
2018-07-09T14:15:39.821Z,22.22
2018-07-09T14:18:07.937Z,22.19
2018-07-09T14:20:39.075Z,22.23
2018-07-09T14:23:07.633Z,22.22
2018-07-09T14:25:35.459Z,22.20
2018-07-09T14:28:03.243Z,22.23
2018-07-09T14:30:31.052Z,22.20
2018-07-09T14:32:58.948Z,22.06
2018-07-09T14:35:26.755Z,22.23
2018-07-09T14:37:54.467Z,22.21
2018-07-09T14:40:22.342Z,22.18
2018-07-09T14:42:50.061Z,22.18
2018-07-09T14:45:17.828Z,22.13
2018-07-09T14:47:45.490Z,22.17
2018-07-09T14:50:13.280Z,22.14
2018-07-09T14:52:41.017Z,22.19
2018-07-09T14:55:08.710Z,22.20
2018-07-09T14:57:36.386Z,22.14
2018-07-09T15:00:04.986Z,22.12
2018-07-09T15:02:32.729Z,22.07
2018-07-09T15:05:00.457Z,22.02
2018-07-09T15:07:28.117Z,22.04
2018-07-09T15:09:55.834Z,22.07
2018-07-09T15:12:23.577Z,22.10
2018-07-09T15:14:51.305Z,22.17
2018-07-09T15:17:19.069Z,22.20
2018-07-09T15:19:46.801Z,22.18
2018-07-09T15:22:14.594Z,22.12
2018-07-09T15:24:42.465Z,22.13
2018-07-09T15:27:10.161Z,22.19
2018-07-09T15:29:37.867Z,22.27
2018-07-09T15:32:16.445Z,22.30
2018-07-09T15:34:44.150Z,22.27
2018-07-09T15:37:11.855Z,22.26
2018-07-09T15:39:39.538Z,22.33
2018-07-09T15:42:07.246Z,22.29
2018-07-09T15:44:34.967Z,22.25
2018-07-09T15:47:02.762Z,22.20
2018-07-09T15:49:30.486Z,22.11
2018-07-09T15:51:58.183Z,22.10
2018-07-09T15:54:25.854Z,22.10
2018-07-09T15:56:53.589Z,22.05
2018-07-09T15:59:21.290Z,22.11
2018-07-09T16:01:48.993Z,22.12
2018-07-09T16:04:16.722Z,22.09
2018-07-09T16:06:44.488Z,22.12
2018-07-09T16:09:12.203Z,22.15
2018-07-09T16:11:39.869Z,22.15
2018-07-09T16:14:07.579Z,22.18
2018-07-09T16:16:35.277Z,22.14
2018-07-09T16:19:03.161Z,22.19
2018-07-09T16:21:30.893Z,22.22
2018-07-09T16:23:58.653Z,22.21
2018-07-09T16:26:26.330Z,22.26
2018-07-09T16:28:54.039Z,22.29
2018-07-09T16:31:21.781Z,22.25
2018-07-09T16:33:49.656Z,22.20
2018-07-09T16:36:17.365Z,22.19
2018-07-09T16:38:45.061Z,22.20
2018-07-09T16:41:12.810Z,22.24
2018-07-09T16:43:40.514Z,22.21
2018-07-09T16:46:08.255Z,22.24
2018-07-09T16:48:35.999Z,22.23
2018-07-09T16:51:03.778Z,22.21
2018-07-09T16:53:31.489Z,22.25
2018-07-09T16:55:59.211Z,22.26
2018-07-09T16:58:26.906Z,22.26
2018-07-09T17:00:54.627Z,22.24
2018-07-09T17:03:22.359Z,22.19
2018-07-09T17:05:50.074Z,22.15
2018-07-09T17:08:17.729Z,22.09
2018-07-09T17:10:45.422Z,22.05
2018-07-09T17:13:13.101Z,22.13
2018-07-09T17:15:40.801Z,22.14
2018-07-09T17:18:08.610Z,22.08
2018-07-09T17:20:36.318Z,22.09
2018-07-09T17:23:03.981Z,22.10
2018-07-09T17:25:31.665Z,22.10
2018-07-09T17:27:59.378Z,22.08
2018-07-09T17:30:27.135Z,22.10
2018-07-09T17:32:55.715Z,22.02
2018-07-09T17:35:23.397Z,22.05
2018-07-09T17:37:51.263Z,22.05
2018-07-09T17:40:19.065Z,22.00
2018-07-09T17:42:46.773Z,21.67
2018-07-09T17:45:14.444Z,22.05
2018-07-09T17:47:42.156Z,22.05
2018-07-09T17:50:09.969Z,22.06
2018-07-09T17:52:38.453Z,22.07
2018-07-09T17:55:06.182Z,22.04
2018-07-09T17:57:33.850Z,22.07
2018-07-09T18:00:01.630Z,22.06
2018-07-09T18:02:29.310Z,22.04
2018-07-09T18:04:57.006Z,22.04
2018-07-09T18:07:24.839Z,21.99
2018-07-09T18:09:52.526Z,22.01
2018-07-09T18:12:20.204Z,22.03
2018-07-09T18:14:47.898Z,22.03
2018-07-09T18:17:15.584Z,21.99
2018-07-09T18:19:43.334Z,21.99
2018-07-09T18:22:11.047Z,22.04
2018-07-09T18:24:38.744Z,22.01
2018-07-09T18:27:06.457Z,22.02
2018-07-09T18:29:34.163Z,22.01
2018-07-09T18:32:01.874Z,21.98
2018-07-09T18:34:29.541Z,21.96
2018-07-09T18:36:57.304Z,21.97
2018-07-09T18:39:25.015Z,21.97
2018-07-09T18:41:52.689Z,21.93
2018-07-09T18:44:20.394Z,21.94
2018-07-09T18:46:48.077Z,21.92
2018-07-09T18:49:15.766Z,21.91
2018-07-09T18:51:43.446Z,21.88
2018-07-09T18:54:11.174Z,21.84
2018-07-09T18:56:38.844Z,21.77
2018-07-09T18:59:06.546Z,21.45
2018-07-09T19:01:34.262Z,21.30
2018-07-09T19:04:01.938Z,21.22
2018-07-09T19:06:40.521Z,21.37
2018-07-09T19:09:08.245Z,21.50
2018-07-09T19:11:36.086Z,21.49
2018-07-09T19:14:03.818Z,21.48
2018-07-09T19:16:36.072Z,21.53
2018-07-09T19:19:14.856Z,21.45
2018-07-09T19:21:53.751Z,21.44
2018-07-09T19:24:20.202Z,21.33
2018-07-09T19:26:46.630Z,21.40
2018-07-09T19:29:13.077Z,21.29
2018-07-09T19:31:39.522Z,21.29
2018-07-09T19:34:05.988Z,21.22
2018-07-09T19:36:32.498Z,21.31
2018-07-09T19:38:58.921Z,21.31
2018-07-09T19:41:25.369Z,21.35
2018-07-09T19:43:51.857Z,21.21
2018-07-09T19:46:18.337Z,21.20
2018-07-09T19:48:44.814Z,21.36
2018-07-09T19:51:11.245Z,21.38
2018-07-09T19:53:37.694Z,21.21
2018-07-09T19:56:04.142Z,21.07
2018-07-09T19:58:30.587Z,21.14
2018-07-09T20:00:57.019Z,21.18
2018-07-09T20:03:23.506Z,21.13
2018-07-09T20:05:49.954Z,20.99
2018-07-09T20:08:16.443Z,20.87
2018-07-09T20:10:48.540Z,20.72
2018-07-09T20:13:20.744Z,20.89
2018-07-09T20:15:52.848Z,20.90
2018-07-09T20:18:19.289Z,20.81
2018-07-09T20:20:45.768Z,20.83
2018-07-09T20:23:12.242Z,20.79
2018-07-09T20:25:38.693Z,20.75
2018-07-09T20:28:05.124Z,20.74
2018-07-09T20:30:31.553Z,20.67
2018-07-09T20:32:57.991Z,20.61
2018-07-09T20:35:24.445Z,20.54
2018-07-09T20:37:50.888Z,20.54
2018-07-09T20:40:17.356Z,20.53
2018-07-09T20:42:43.796Z,20.42
2018-07-09T20:45:10.262Z,20.39
2018-07-09T20:47:36.678Z,20.35
2018-07-09T20:50:03.136Z,20.27
2018-07-09T20:52:29.574Z,20.32
2018-07-09T20:54:56.018Z,20.19
2018-07-09T20:57:22.473Z,20.20
2018-07-09T20:59:48.917Z,20.19
2018-07-09T21:02:15.357Z,20.15
2018-07-09T21:04:41.800Z,20.11
2018-07-09T21:07:08.263Z,19.77
2018-07-09T21:09:34.714Z,19.91
2018-07-09T21:12:06.517Z,19.92
2018-07-09T21:14:32.966Z,19.86
2018-07-09T21:16:59.404Z,19.86
2018-07-09T21:19:25.839Z,19.87
2018-07-09T21:21:52.244Z,19.73
2018-07-09T21:24:18.683Z,19.65
2018-07-09T21:26:45.122Z,19.63
2018-07-09T21:29:11.554Z,19.67
2018-07-09T21:31:37.982Z,19.63
2018-07-09T21:34:04.485Z,19.56
2018-07-09T21:36:30.901Z,19.57
2018-07-09T21:38:57.332Z,19.27
2018-07-09T21:41:23.761Z,19.26
2018-07-09T21:43:50.193Z,18.80
2018-07-09T21:46:16.653Z,18.81
2018-07-09T21:48:43.187Z,18.93
2018-07-09T21:51:09.607Z,19.01
2018-07-09T21:53:36.041Z,18.91
2018-07-09T21:56:02.487Z,18.47
2018-07-09T21:58:28.921Z,18.44
2018-07-09T22:00:55.366Z,18.36
2018-07-09T22:03:21.804Z,18.68
2018-07-09T22:05:48.241Z,18.93
2018-07-09T22:08:14.716Z,18.91
2018-07-09T22:10:41.184Z,18.81
2018-07-09T22:13:07.630Z,18.46
2018-07-09T22:15:34.062Z,18.11
2018-07-09T22:18:00.520Z,18.05
2018-07-09T22:20:26.963Z,18.18
2018-07-09T22:22:53.408Z,18.37
2018-07-09T22:25:19.862Z,18.55
2018-07-09T22:27:46.278Z,18.48
2018-07-09T22:30:12.721Z,18.55
2018-07-09T22:32:40.404Z,18.64
2018-07-09T22:35:08.123Z,18.62
2018-07-09T22:37:35.788Z,16.91
2018-07-09T22:40:03.507Z,18.62
2018-07-09T22:42:31.190Z,18.57
2018-07-09T22:44:58.892Z,18.47
2018-07-09T22:47:26.632Z,18.47
2018-07-09T22:49:54.310Z,18.42
2018-07-09T22:52:21.993Z,18.41
2018-07-09T22:54:59.879Z,18.30
2018-07-09T22:57:27.540Z,18.30
2018-07-09T22:59:55.220Z,18.20
2018-07-09T23:02:22.920Z,17.88
2018-07-09T23:04:50.623Z,17.89
2018-07-09T23:07:18.309Z,18.05
2018-07-09T23:10:08.046Z,18.02
2018-07-09T23:12:47.552Z,17.91
2018-07-09T23:16:50.353Z,17.97
2018-07-09T23:22:17.041Z,17.90
2018-07-09T23:24:43.490Z,17.71
2018-07-09T23:27:09.912Z,17.58
2018-07-09T23:29:36.357Z,17.72
2018-07-09T23:32:02.809Z,17.54
2018-07-09T23:34:29.244Z,17.73
2018-07-09T23:36:55.682Z,17.72
2018-07-09T23:39:22.124Z,17.30
2018-07-09T23:41:48.565Z,17.38
2018-07-09T23:44:14.978Z,17.47
2018-07-09T23:46:41.418Z,17.54
2018-07-09T23:49:07.866Z,17.39
2018-07-09T23:51:34.312Z,17.48
2018-07-09T23:54:00.759Z,17.54
2018-07-09T23:59:41.767Z,17.37
